Time;durP1;ratioP1;P1;durP2;ratioP2;P2;SDS_P1;SDS_P2;PMS_P1;PMS_P2;Temp;Humidity;BMP_temperature;BMP_pressure;BME280_temperature;BME280_humidity;BME280_pressure;Samples;Min_cycle;Max_cycle;Signal;HPM_P1;HPM_P2
2022/05/20 00:01:53;;;;;;;4.00;3.27;;;24.70;59.50;;;;;;5091426;28;20494;-68
2022/05/20 00:04:21;;;;;;;3.73;3.43;;;24.80;60.80;;;;;;5092197;28;20425;-68
2022/05/20 00:06:49;;;;;;;3.07;2.83;;;24.70;59.40;;;;;;5090328;28;20545;-67
2022/05/20 00:09:18;;;;;;;3.30;3.00;;;24.70;59.50;;;;;;5091601;28;20502;-67
2022/05/20 00:11:46;;;;;;;2.10;1.90;;;24.70;59.50;;;;;;5089880;28;20461;-68
2022/05/20 00:14:15;;;;;;;3.00;2.53;;;24.70;59.60;;;;;;5084576;28;20470;-68
2022/05/20 00:16:44;;;;;;;3.50;3.20;;;24.70;59.60;;;;;;5091816;28;20496;-68
2022/05/20 00:19:12;;;;;;;3.10;2.80;;;24.70;59.60;;;;;;5092256;28;20799;-66
2022/05/20 00:21:42;;;;;;;3.20;2.90;;;24.70;59.60;;;;;;5088375;28;20826;-68
2022/05/20 00:24:10;;;;;;;3.00;2.80;;;24.70;59.60;;;;;;5090660;28;20441;-68
2022/05/20 00:26:38;;;;;;;3.57;2.80;;;24.70;59.50;;;;;;5090115;28;21039;-68
2022/05/20 00:29:06;;;;;;;2.40;2.30;;;24.70;59.50;;;;;;5091751;28;20502;-67
2022/05/20 00:31:36;;;;;;;3.07;2.87;;;24.70;59.60;;;;;;5091552;28;20464;-67
2022/05/20 00:34:04;;;;;;;2.37;2.23;;;24.70;59.60;;;;;;5091390;28;20528;-67
2022/05/20 00:36:33;;;;;;;2.73;2.47;;;24.70;59.60;;;;;;5082579;28;20480;-68
2022/05/20 00:39:01;;;;;;;3.00;2.80;;;24.70;59.60;;;;;;5090702;28;20515;-67
2022/05/20 00:41:29;;;;;;;3.70;3.40;;;24.70;59.60;;;;;;5091055;28;20540;-67
2022/05/20 00:43:58;;;;;;;2.20;2.10;;;24.70;59.50;;;;;;5090172;28;20440;-68
2022/05/20 00:46:28;;;;;;;2.73;2.53;;;24.60;59.60;;;;;;5090284;28;20475;-68
2022/05/20 00:49:01;;;;;;;2.60;2.40;;;24.60;59.60;;;;;;5073345;28;20518;-68
2022/05/20 00:51:34;;;;;;;3.00;2.80;;;24.70;59.70;;;;;;5089905;28;20529;-67
2022/05/20 00:54:07;;;;;;;4.10;3.40;;;24.60;59.50;;;;;;5091496;28;20441;-66
2022/05/20 00:56:39;;;;;;;3.90;3.23;;;24.60;59.50;;;;;;5089913;28;20472;-68
2022/05/20 00:59:11;;;;;;;4.23;3.70;;;24.60;59.60;;;;;;5081854;28;20426;-67
2022/05/20 01:01:39;;;;;;;3.53;3.10;;;24.60;59.50;;;;;;5090656;28;20956;-67
2022/05/20 01:04:09;;;;;;;2.93;2.70;;;24.60;59.50;;;;;;5091340;28;20432;-67
2022/05/20 01:06:37;;;;;;;3.77;3.47;;;24.60;59.60;;;;;;5088874;28;20476;-67
2022/05/20 01:09:05;;;;;;;4.53;3.53;;;24.60;59.50;;;;;;5092797;28;20443;-68
2022/05/20 01:11:33;;;;;;;3.20;3.00;;;24.60;59.60;;;;;;5089858;28;20990;-67
2022/05/20 01:14:02;;;;;;;3.60;3.30;;;24.60;59.70;;;;;;5090032;28;20464;-68
2022/05/20 01:16:30;;;;;;;3.83;3.40;;;24.60;59.60;;;;;;5073038;28;20491;-68
2022/05/20 01:18:58;;;;;;;4.07;3.77;;;24.60;59.60;;;;;;5091227;28;20429;-67
2022/05/20 01:21:28;;;;;;;2.50;2.30;;;24.50;59.60;;;;;;5087488;28;20494;-67
2022/05/20 01:24:02;;;;;;;2.87;2.67;;;24.50;59.60;;;;;;5091053;28;20788;-68
2022/05/20 01:26:30;;;;;;;2.43;2.23;;;24.60;59.70;;;;;;5090534;28;20525;-67
2022/05/20 01:28:58;;;;;;;2.33;2.13;;;24.50;59.70;;;;;;5091532;28;20531;-67
2022/05/20 01:31:26;;;;;;;1.90;1.80;;;24.50;59.70;;;;;;5090581;28;20996;-67
2022/05/20 01:33:54;;;;;;;2.17;2.03;;;24.50;59.70;;;;;;5091261;28;20435;-67
2022/05/20 01:36:25;;;;;;;2.50;2.30;;;24.50;59.80;;;;;;5090555;28;20568;-68
2022/05/20 01:38:54;;;;;;;2.87;2.57;;;24.50;59.80;;;;;;5084696;28;20850;-67
2022/05/20 01:41:30;;;;;;;2.90;2.70;;;24.50;59.70;;;;;;5090740;28;21013;-68
2022/05/20 01:44:08;;;;;;;3.20;2.93;;;24.50;59.70;;;;;;5090950;28;20850;-67
2022/05/20 01:46:41;;;;;;;4.27;3.87;;;24.50;59.70;;;;;;5094881;28;20559;-67
2022/05/20 01:49:18;;;;;;;3.50;2.97;;;24.50;59.60;;;;;;5095167;28;20942;-68
2022/05/20 01:51:51;;;;;;;3.00;2.80;;;24.50;59.60;;;;;;5093371;28;20506;-68
2022/05/20 01:54:26;;;;;;;2.57;2.37;;;24.50;59.60;;;;;;5086882;28;20478;-67
2022/05/20 01:57:00;;;;;;;2.50;2.33;;;24.50;59.70;;;;;;5090659;28;20946;-68
2022/05/20 01:59:35;;;;;;;3.00;2.80;;;24.50;59.70;;;;;;5089169;28;20446;-67
2022/05/20 02:02:07;;;;;;;2.90;2.70;;;24.50;59.70;;;;;;5094161;28;20512;-68
2022/05/20 02:04:43;;;;;;;2.93;2.63;;;24.50;59.70;;;;;;5094850;28;20470;-68
2022/05/20 02:07:18;;;;;;;3.30;3.00;;;24.50;59.70;;;;;;5081445;28;20467;-68
2022/05/20 02:09:51;;;;;;;2.80;2.60;;;24.50;59.70;;;;;;5102577;28;20434;-67
2022/05/20 02:12:25;;;;;;;2.07;1.97;;;24.40;59.60;;;;;;5100670;28;20503;-68
2022/05/20 02:14:58;;;;;;;4.13;3.40;;;24.40;59.70;;;;;;5092765;28;20440;-67
2022/05/20 02:17:31;;;;;;;3.13;2.93;;;24.40;59.60;;;;;;5094122;28;20464;-67
2022/05/20 02:20:05;;;;;;;3.63;3.33;;;24.40;59.50;;;;;;5094018;28;20429;-68
2022/05/20 02:22:38;;;;;;;2.73;2.53;;;24.40;59.50;;;;;;5090086;28;20474;-68
2022/05/20 02:25:09;;;;;;;2.43;2.23;;;24.40;59.50;;;;;;5076427;28;20435;-67
2022/05/20 02:27:42;;;;;;;3.47;3.17;;;24.40;59.60;;;;;;5088890;28;20529;-67
2022/05/20 02:30:14;;;;;;;2.17;2.07;;;24.40;59.60;;;;;;5094187;28;20475;-68
2022/05/20 02:32:48;;;;;;;2.80;2.60;;;24.40;59.60;;;;;;5093161;28;20455;-68
2022/05/20 02:35:16;;;;;;;3.17;2.90;;;24.40;59.60;;;;;;5094225;28;20916;-67
2022/05/20 02:37:44;;;;;;;3.10;2.90;;;24.30;59.60;;;;;;5092446;28;21057;-67
2022/05/20 02:40:15;;;;;;;3.10;2.90;;;24.40;59.60;;;;;;5092027;28;20951;-67
2022/05/20 02:42:44;;;;;;;2.77;2.57;;;24.30;59.50;;;;;;5083251;28;20549;-68
2022/05/20 02:45:14;;;;;;;3.33;3.03;;;24.30;59.60;;;;;;5093535;28;20440;-67
2022/05/20 02:47:42;;;;;;;2.43;2.33;;;24.30;59.70;;;;;;5093137;28;20460;-67
2022/05/20 02:50:13;;;;;;;2.33;2.23;;;24.30;59.70;;;;;;5093117;28;20815;-68
2022/05/20 02:52:41;;;;;;;3.20;3.00;;;24.30;59.70;;;;;;5081295;28;20533;-68
2022/05/20 02:55:11;;;;;;;2.70;2.50;;;24.30;59.60;;;;;;5093441;28;20437;-68
2022/05/20 02:57:39;;;;;;;2.80;2.50;;;24.30;59.60;;;;;;5091558;28;21005;-68
2022/05/20 03:05:42;;;;;;;3.30;3.03;;;24.30;60.80;;;;;;5087570;28;20547;-68
2022/05/20 03:08:11;;;;;;;3.27;2.97;;;24.30;59.60;;;;;;5093342;28;20505;-67
2022/05/20 03:10:39;;;;;;;3.40;3.20;;;24.30;59.60;;;;;;5093563;28;20521;-67
2022/05/20 03:13:08;;;;;;;2.90;2.70;;;24.30;60.20;;;;;;5087819;28;20435;-68
2022/05/20 03:15:39;;;;;;;5.50;3.17;;;24.30;59.60;;;;;;5091479;28;20451;-68
2022/05/20 03:18:09;;;;;;;2.87;2.67;;;24.30;59.50;;;;;;5093304;28;20531;-68
2022/05/20 03:20:38;;;;;;;2.70;2.50;;;24.30;59.70;;;;;;5091647;28;20444;-68
2022/05/20 03:23:07;;;;;;;2.30;2.10;;;24.30;59.70;;;;;;5093617;28;20850;-67
2022/05/20 03:25:36;;;;;;;2.90;2.57;;;24.30;59.70;;;;;;5092409;28;20459;-67
2022/05/20 03:28:10;;;;;;;3.23;3.03;;;24.20;59.60;;;;;;5091340;28;20855;-68
2022/05/20 03:30:40;;;;;;;2.70;2.23;;;24.20;59.50;;;;;;5093060;28;20473;-68
2022/05/20 03:33:08;;;;;;;3.10;2.90;;;24.20;59.60;;;;;;5093090;28;20443;-67
2022/05/20 03:35:36;;;;;;;2.30;2.10;;;24.20;59.70;;;;;;5087061;28;20467;-68
2022/05/20 03:38:04;;;;;;;1.90;1.80;;;24.20;59.70;;;;;;5092842;28;20439;-68
2022/05/20 03:40:32;;;;;;;2.70;2.50;;;24.20;59.70;;;;;;5092670;28;20517;-67
2022/05/20 03:43:00;;;;;;;2.83;2.63;;;24.20;59.70;;;;;;5082135;28;21050;-68
2022/05/20 03:45:29;;;;;;;2.00;1.90;;;24.20;59.70;;;;;;5092596;28;20427;-68
2022/05/20 03:47:59;;;;;;;2.37;2.27;;;24.20;59.80;;;;;;5092551;28;20428;-67
2022/05/20 03:50:27;;;;;;;2.93;2.73;;;24.20;59.70;;;;;;5092096;28;20484;-68
2022/05/20 03:52:55;;;;;;;3.67;3.40;;;24.20;59.70;;;;;;5091873;28;20481;-68
2022/05/20 03:55:23;;;;;;;4.23;2.97;;;24.20;59.70;;;;;;5091271;28;20477;-67
2022/05/20 03:57:51;;;;;;;3.70;3.40;;;24.20;59.70;;;;;;5087941;28;20521;-67
2022/05/20 04:00:20;;;;;;;3.57;2.77;;;24.20;59.70;;;;;;5092756;28;20438;-68
2022/05/20 04:02:47;;;;;;;3.87;3.23;;;24.10;59.50;;;;;;5084374;28;20448;-68
2022/05/20 04:05:17;;;;;;;3.67;2.53;;;24.20;59.70;;;;;;5089487;28;20445;-68
2022/05/20 04:07:45;;;;;;;2.53;2.33;;;24.10;59.70;;;;;;5090086;28;20474;-67
2022/05/20 04:10:13;;;;;;;2.23;2.00;;;24.10;59.70;;;;;;5092699;28;20849;-68
2022/05/20 04:12:43;;;;;;;3.30;3.10;;;24.10;59.80;;;;;;5090659;28;20469;-67
2022/05/20 04:15:14;;;;;;;2.37;2.20;;;24.10;59.80;;;;;;5092082;28;20468;-66
2022/05/20 04:17:42;;;;;;;2.40;2.20;;;24.10;59.70;;;;;;5099529;28;20497;-67
2022/05/20 04:20:11;;;;;;;1.93;1.80;;;24.10;59.70;;;;;;5097613;28;20989;-67
2022/05/20 04:22:41;;;;;;;3.20;3.00;;;24.10;59.70;;;;;;5104976;28;20833;-67
2022/05/20 04:25:10;;;;;;;2.43;2.23;;;24.10;59.80;;;;;;5100189;28;20458;-68
2022/05/20 04:27:38;;;;;;;3.17;2.87;;;24.10;59.80;;;;;;5081652;28;20986;-68
2022/05/20 04:30:08;;;;;;;2.40;2.20;;;24.10;59.80;;;;;;5091166;28;20434;-68
2022/05/20 04:32:36;;;;;;;2.80;2.60;;;24.10;59.80;;;;;;5091555;28;20535;-68
2022/05/20 04:35:05;;;;;;;2.70;2.50;;;24.10;59.80;;;;;;5090900;28;20488;-67
2022/05/20 04:37:33;;;;;;;3.00;2.80;;;24.10;59.80;;;;;;5089741;28;20525;-68
2022/05/20 04:40:03;;;;;;;2.97;2.77;;;24.10;59.80;;;;;;5091823;28;20513;-68
2022/05/20 04:48:02;;;;;;;3.07;2.50;;;24.00;59.70;;;;;;5091422;28;20477;-67
2022/05/20 04:50:30;;;;;;;2.30;2.20;;;24.00;59.80;;;;;;5088075;28;20933;-68
2022/05/20 04:53:05;;;;;;;2.90;2.70;;;24.00;59.70;;;;;;5091355;28;20469;-67
2022/05/20 04:55:34;;;;;;;2.60;2.40;;;24.00;59.80;;;;;;5091362;28;20457;-67
2022/05/20 04:58:02;;;;;;;3.17;2.87;;;24.00;59.90;;;;;;5088784;28;20442;-68
2022/05/20 05:00:31;;;;;;;3.17;2.87;;;24.00;59.80;;;;;;5090674;28;20438;-68
2022/05/20 05:02:59;;;;;;;2.50;2.30;;;24.00;59.80;;;;;;5091497;28;20437;-68
2022/05/20 05:05:29;;;;;;;2.90;2.63;;;24.00;59.90;;;;;;5091464;28;20489;-68
2022/05/20 05:07:58;;;;;;;2.87;2.53;;;24.00;60.00;;;;;;5092843;28;20470;-67
2022/05/20 05:10:30;;;;;;;2.50;2.30;;;24.00;59.90;;;;;;5092002;28;20803;-68
2022/05/20 05:13:01;;;;;;;3.73;3.13;;;24.00;60.00;;;;;;5089006;28;20463;-67
2022/05/20 05:15:30;;;;;;;2.20;2.00;;;23.90;59.80;;;;;;5091216;28;20932;-68
2022/05/20 05:18:12;;;;;;;3.37;3.07;;;23.90;59.90;;;;;;5091648;28;20439;-67
2022/05/20 05:20:44;;;;;;;3.80;3.50;;;23.90;59.90;;;;;;5081730;28;20450;-68
2022/05/20 05:23:13;;;;;;;3.50;3.20;;;23.90;59.80;;;;;;5095277;28;20429;-67
2022/05/20 05:25:42;;;;;;;3.33;3.00;;;23.90;59.90;;;;;;5094578;28;20506;-68
2022/05/20 05:28:12;;;;;;;3.27;2.97;;;23.90;59.90;;;;;;5093449;28;20441;-67
2022/05/20 05:30:42;;;;;;;3.73;3.43;;;23.90;59.90;;;;;;5095058;28;20434;-67
2022/05/20 05:33:10;;;;;;;4.40;4.00;;;23.90;59.90;;;;;;5095043;28;20465;-68
2022/05/20 05:35:38;;;;;;;3.87;3.57;;;23.90;59.90;;;;;;5094295;28;20994;-67
2022/05/20 05:38:07;;;;;;;5.50;5.00;;;23.90;59.90;;;;;;5093619;28;20433;-68
2022/05/20 05:40:35;;;;;;;3.53;3.07;;;23.90;59.90;;;;;;5097326;28;20472;-68
2022/05/20 05:43:04;;;;;;;4.40;4.10;;;23.90;59.80;;;;;;5094303;28;20857;-68
2022/05/20 05:45:35;;;;;;;3.23;2.93;;;23.90;60.00;;;;;;5094108;28;20960;-68
2022/05/20 05:48:06;;;;;;;5.00;3.37;;;23.90;60.00;;;;;;5094988;28;20982;-67
2022/05/20 05:50:36;;;;;;;4.33;3.93;;;23.90;59.90;;;;;;5093762;28;20498;-68
2022/05/20 05:53:09;;;;;;;6.07;5.53;;;23.90;59.90;;;;;;5093500;28;20484;-67
2022/05/20 05:55:37;;;;;;;3.97;3.67;;;23.90;60.00;;;;;;5094363;28;20955;-68
2022/05/20 05:58:09;;;;;;;4.90;4.00;;;23.90;59.90;;;;;;5089705;28;20524;-68
2022/05/20 06:00:39;;;;;;;6.77;6.17;;;23.90;59.90;;;;;;5100712;28;20782;-73
2022/05/20 06:03:07;;;;;;;5.50;5.00;;;23.90;60.00;;;;;;5097468;28;20425;-73
2022/05/20 06:05:36;;;;;;;6.43;5.93;;;23.90;59.90;;;;;;5095705;28;20458;-73
2022/05/20 06:08:04;;;;;;;8.50;7.70;;;23.90;59.90;;;;;;5096674;28;20422;-73
2022/05/20 06:10:32;;;;;;;5.73;5.20;;;23.80;59.90;;;;;;5109280;28;20454;-73
2022/05/20 06:13:00;;;;;;;7.20;6.50;;;23.80;60.00;;;;;;5091725;28;20454;-73
2022/05/20 06:15:29;;;;;;;6.50;6.00;;;23.80;60.00;;;;;;5093880;28;20512;-73
2022/05/20 06:17:58;;;;;;;4.20;3.83;;;23.80;60.00;;;;;;5094526;28;20483;-73
2022/05/20 06:20:27;;;;;;;6.10;5.60;;;23.80;61.30;;;;;;5094960;28;20430;-73
2022/05/20 06:22:57;;;;;;;8.00;7.30;;;23.80;60.00;;;;;;5090284;28;20442;-73
2022/05/20 06:25:25;;;;;;;4.90;4.50;;;23.80;60.10;;;;;;5094352;28;20436;-73
2022/05/20 06:27:54;;;;;;;4.10;3.80;;;23.80;60.10;;;;;;5092336;28;20463;-74
2022/05/20 06:30:23;;;;;;;4.80;4.40;;;23.80;60.00;;;;;;5093528;28;20437;-73
2022/05/20 06:32:51;;;;;;;10.07;9.07;;;23.80;60.10;;;;;;5093719;28;20569;-73
2022/05/20 06:40:52;;;;;;;8.73;7.83;;;23.80;60.20;;;;;;5092222;28;20485;-73
2022/05/20 06:43:22;;;;;;;5.60;5.10;;;23.80;60.40;;;;;;5089998;28;20861;-72
2022/05/20 06:45:53;;;;;;;5.10;4.70;;;23.80;60.30;;;;;;5092977;28;20460;-72
2022/05/20 06:48:45;;;;;;;4.50;4.10;;;23.80;60.30;;;;;;5093063;28;20432;-73
2022/05/20 06:51:17;;;;;;;10.20;9.20;;;23.80;60.30;;;;;;5092554;28;20474;-73
2022/05/20 06:53:46;;;;;;;6.27;5.73;;;23.80;60.50;;;;;;5092023;28;20854;-73
2022/05/20 06:56:16;;;;;;;9.60;8.70;;;23.70;60.50;;;;;;5083122;28;21053;-74
2022/05/20 06:58:44;;;;;;;6.10;5.10;;;23.70;60.50;;;;;;5094109;28;20997;-73
2022/05/20 07:01:13;;;;;;;5.33;4.83;;;23.70;60.50;;;;;;5114406;28;20483;-73
2022/05/20 07:03:41;;;;;;;7.67;6.97;;;23.70;60.60;;;;;;5097054;28;20426;-73
2022/05/20 07:06:11;;;;;;;5.93;5.33;;;23.70;60.70;;;;;;5088337;28;20915;-73
2022/05/20 07:08:43;;;;;;;7.47;6.60;;;23.70;60.60;;;;;;5092973;28;20589;-73
2022/05/20 07:11:11;;;;;;;8.67;7.87;;;23.70;60.70;;;;;;5087118;28;20460;-74
2022/05/20 07:13:41;;;;;;;7.80;7.00;;;23.70;60.80;;;;;;5089857;28;20461;-73
2022/05/20 07:16:14;;;;;;;19.37;15.77;;;23.70;61.00;;;;;;5095446;28;20472;-73
2022/05/20 07:18:45;;;;;;;24.40;21.83;;;23.60;61.90;;;;;;5095765;28;20442;-73
2022/05/20 07:21:13;;;;;;;29.40;25.48;;;23.60;62.80;;;;;;5091203;28;20873;-72
2022/05/20 07:23:43;;;;;;;24.33;21.80;;;23.60;63.30;;;;;;5089826;28;20183;-73
2022/05/20 07:26:13;;;;;;;22.87;20.53;;;23.50;63.70;;;;;;5092090;28;20481;-73
2022/05/20 07:28:41;;;;;;;23.00;19.43;;;23.40;63.70;;;;;;5080817;28;20869;-73
2022/05/20 07:31:09;;;;;;;18.63;15.40;;;23.40;63.50;;;;;;5091746;28;20515;-73
2022/05/20 07:33:38;;;;;;;19.07;17.17;;;23.40;63.40;;;;;;5093196;28;20456;-72
2022/05/20 07:36:07;;;;;;;18.17;14.33;;;23.40;63.30;;;;;;5068321;28;20465;-72
2022/05/20 07:38:36;;;;;;;20.50;17.40;;;23.50;63.30;;;;;;5092923;28;20494;-73
2022/05/20 07:41:05;;;;;;;15.43;13.80;;;23.40;63.20;;;;;;5087077;28;20458;-73
2022/05/20 07:43:34;;;;;;;17.33;14.90;;;23.50;63.00;;;;;;5090143;28;20445;-72
2022/05/20 07:46:03;;;;;;;15.40;13.77;;;23.50;63.00;;;;;;5091954;28;20563;-73
2022/05/20 07:48:32;;;;;;;15.33;13.80;;;23.50;62.80;;;;;;5075171;28;20438;-73
2022/05/20 07:51:02;;;;;;;17.13;15.37;;;23.50;62.80;;;;;;5090893;28;20861;-71
2022/05/20 07:53:35;;;;;;;17.27;13.50;;;23.50;62.70;;;;;;5093026;28;20460;-73
2022/05/20 07:56:15;;;;;;;12.60;11.20;;;23.50;62.80;;;;;;5091908;28;20462;-72
2022/05/20 07:58:47;;;;;;;12.13;10.83;;;23.50;62.60;;;;;;5088486;28;20495;-73
2022/05/20 08:01:19;;;;;;;15.97;14.27;;;23.50;62.60;;;;;;5064941;28;20476;-72
2022/05/20 08:06:36;;;;;;;13.57;12.17;;;23.50;62.70;;;;;;5072762;28;20469;-72
2022/05/20 08:09:04;;;;;;;15.50;12.63;;;23.50;62.60;;;;;;5092181;28;20442;-73
2022/05/20 08:11:34;;;;;;;12.90;11.60;;;23.50;62.70;;;;;;5091017;28;20476;-72
2022/05/20 08:14:02;;;;;;;11.07;9.97;;;23.50;62.70;;;;;;5091156;28;20456;-72
2022/05/20 08:16:30;;;;;;;10.80;9.70;;;23.50;62.70;;;;;;5091865;28;20891;-72
2022/05/20 08:18:59;;;;;;;13.13;11.93;;;23.50;62.60;;;;;;5092380;28;20434;-73
2022/05/20 08:21:27;;;;;;;14.03;12.77;;;23.50;62.80;;;;;;5089902;28;20887;-73
2022/05/20 08:23:55;;;;;;;11.60;10.20;;;23.50;62.70;;;;;;5082703;28;20987;-72
2022/05/20 08:26:23;;;;;;;13.77;12.30;;;23.50;62.70;;;;;;5091357;28;20888;-72
2022/05/20 08:28:52;;;;;;;12.97;11.63;;;23.50;62.80;;;;;;5079047;28;20444;-72
2022/05/20 08:31:20;;;;;;;12.73;11.63;;;23.50;62.80;;;;;;5091240;28;21039;-73
2022/05/20 08:33:50;;;;;;;13.07;11.70;;;23.50;62.80;;;;;;5091873;28;20460;-72
2022/05/20 08:36:19;;;;;;;11.13;10.07;;;23.50;62.80;;;;;;5090571;28;20479;-72
2022/05/20 08:38:47;;;;;;;20.50;16.37;;;23.50;64.20;;;;;;5087514;28;20444;-72
2022/05/20 08:41:24;;;;;;;22.13;19.92;;;23.50;62.90;;;;;;5089888;28;20440;-72
2022/05/20 08:43:54;;;;;;;18.03;16.23;;;23.50;63.90;;;;;;5084323;28;20207;-73
2022/05/20 08:46:24;;;;;;;16.10;14.40;;;23.50;63.90;;;;;;5096221;28;20511;-73
2022/05/20 08:48:55;;;;;;;16.27;13.70;;;23.50;63.90;;;;;;5112635;28;20470;-73
2022/05/20 08:51:28;;;;;;;15.67;13.90;;;23.50;65.20;;;;;;5110637;28;20460;-73
2022/05/20 08:53:56;;;;;;;16.30;14.63;;;23.50;64.30;;;;;;5089753;28;20458;-73
2022/05/20 08:56:26;;;;;;;16.53;14.23;;;23.50;64.50;;;;;;5091210;28;20497;-72
2022/05/20 08:58:58;;;;;;;15.67;13.90;;;23.50;64.90;;;;;;5087468;28;20478;-73
2022/05/20 09:01:29;;;;;;;15.20;13.70;;;23.50;64.70;;;;;;5091627;28;20457;-73
2022/05/20 09:03:57;;;;;;;14.83;12.60;;;23.50;64.50;;;;;;5091036;28;20430;-73
2022/05/20 09:06:26;;;;;;;11.33;10.20;;;23.50;64.50;;;;;;5087747;28;20516;-72
2022/05/20 09:09:08;;;;;;;11.73;10.53;;;23.50;64.50;;;;;;5081769;28;20430;-72
2022/05/20 09:11:38;;;;;;;10.00;9.07;;;23.50;64.00;;;;;;5071529;28;20469;-72
2022/05/20 09:17:05;;;;;;;11.50;10.03;;;23.50;63.90;;;;;;5090538;28;20566;-72
2022/05/20 09:19:33;;;;;;;10.57;9.43;;;23.50;63.80;;;;;;5088923;28;20829;-72
2022/05/20 09:22:03;;;;;;;9.53;8.70;;;23.50;63.80;;;;;;5079520;28;20984;-72
2022/05/20 09:24:38;;;;;;;10.23;9.23;;;23.50;63.70;;;;;;5091445;28;20445;-72
2022/05/20 09:27:08;;;;;;;9.80;8.90;;;23.60;63.50;;;;;;5089920;28;20483;-72
2022/05/20 09:29:41;;;;;;;11.03;10.03;;;23.60;63.60;;;;;;5076054;28;20443;-72
2022/05/20 09:32:22;;;;;;;10.80;9.70;;;23.50;63.50;;;;;;5083719;28;20457;-73
2022/05/20 09:35:00;;;;;;;10.33;9.43;;;23.50;63.60;;;;;;5107601;28;20485;-72
2022/05/20 09:37:33;;;;;;;10.23;9.10;;;23.50;63.60;;;;;;5090081;28;20531;-73
2022/05/20 09:40:22;;;;;;;9.40;8.37;;;23.60;63.50;;;;;;5072803;28;20437;-73
2022/05/20 09:43:22;;;;;;;9.23;8.33;;;23.50;63.40;;;;;;5086748;28;20842;-72
2022/05/20 09:45:52;;;;;;;9.70;8.87;;;23.60;63.30;;;;;;5089949;28;20522;-72
2022/05/20 09:48:24;;;;;;;9.20;8.40;;;23.60;63.50;;;;;;5096303;28;20833;-72
2022/05/20 09:51:05;;;;;;;10.20;9.27;;;23.50;63.20;;;;;;5110421;28;20513;-72
2022/05/20 09:53:36;;;;;;;9.10;8.30;;;23.60;63.60;;;;;;5084015;28;20459;-73
2022/05/20 09:56:22;;;;;;;11.23;10.10;;;23.60;64.90;;;;;;5092890;28;20468;-72
2022/05/20 09:59:16;;;;;;;9.10;8.20;;;23.50;63.60;;;;;;5088347;28;20479;-73
2022/05/20 10:01:55;;;;;;;9.83;8.93;;;23.60;63.50;;;;;;5107044;28;20467;-73
2022/05/20 10:04:32;;;;;;;8.37;7.60;;;23.60;63.40;;;;;;5088306;28;20513;-73
2022/05/20 10:07:02;;;;;;;11.00;9.97;;;23.60;63.50;;;;;;5104540;28;20512;-73
2022/05/20 10:09:42;;;;;;;9.53;8.67;;;23.60;63.70;;;;;;5094726;28;20421;-72
2022/05/20 10:12:17;;;;;;;10.40;8.83;;;23.60;63.80;;;;;;5080099;28;20516;-72
2022/05/20 10:14:52;;;;;;;8.20;7.50;;;23.60;63.70;;;;;;5090578;28;20799;-73
2022/05/20 10:17:35;;;;;;;8.13;7.43;;;23.60;63.60;;;;;;5091821;28;20845;-72
2022/05/20 10:20:12;;;;;;;8.57;7.77;;;23.60;63.60;;;;;;5109963;28;20413;-72
2022/05/20 10:22:49;;;;;;;8.27;7.57;;;23.60;63.60;;;;;;5083555;28;20470;-73
2022/05/20 10:25:26;;;;;;;8.33;7.60;;;23.60;63.70;;;;;;5086224;28;20914;-72
2022/05/20 10:28:01;;;;;;;9.07;8.27;;;23.60;63.70;;;;;;5091778;28;20471;-72
2022/05/20 10:33:27;;;;;;;9.60;7.97;;;23.60;63.90;;;;;;5100934;28;21005;-72
2022/05/20 10:36:07;;;;;;;7.80;7.10;;;23.60;63.80;;;;;;5090277;28;20517;-73
2022/05/20 10:38:52;;;;;;;8.27;7.57;;;23.60;63.80;;;;;;5075894;28;20463;-72
2022/05/20 10:41:33;;;;;;;7.13;6.53;;;23.60;63.80;;;;;;5093745;28;20509;-72
2022/05/20 10:50:06;;;;;;;9.00;8.20;;;23.60;63.90;;;;;;5094137;28;20481;-73
2022/05/20 10:52:48;;;;;;;8.70;7.90;;;23.60;63.90;;;;;;5092198;28;20495;-73
2022/05/20 10:55:25;;;;;;;7.83;7.23;;;23.60;64.00;;;;;;5075426;28;20515;-73
2022/05/20 10:58:24;;;;;;;9.20;8.00;;;23.60;64.00;;;;;;5089212;28;20461;-72
2022/05/20 11:00:55;;;;;;;8.30;7.60;;;23.60;64.20;;;;;;5092024;28;20483;-72
2022/05/20 11:03:51;;;;;;;8.50;7.80;;;23.60;64.20;;;;;;5092931;28;20427;-72
2022/05/20 11:06:47;;;;;;;8.03;7.33;;;23.60;64.20;;;;;;5103454;28;20477;-72
2022/05/20 11:09:23;;;;;;;8.63;7.83;;;23.60;64.20;;;;;;5093225;28;20436;-73
2022/05/20 11:11:59;;;;;;;7.37;6.77;;;23.60;64.30;;;;;;5089090;28;20476;-72
2022/05/20 11:14:51;;;;;;;7.90;7.20;;;23.60;64.40;;;;;;5092078;28;20432;-73
2022/05/20 11:17:43;;;;;;;9.20;8.40;;;23.50;64.60;;;;;;5083535;28;20500;-72
2022/05/20 11:20:28;;;;;;;8.40;7.73;;;23.50;64.50;;;;;;5089431;28;20435;-73
2022/05/20 11:23:29;;;;;;;8.37;7.67;;;23.50;64.60;;;;;;5092261;28;20891;-72
2022/05/20 11:26:31;;;;;;;7.90;7.27;;;23.60;64.90;;;;;;5110686;28;21034;-72
2022/05/20 11:29:25;;;;;;;9.43;8.63;;;23.50;64.90;;;;;;5090384;28;20440;-73
2022/05/20 11:31:58;;;;;;;8.17;7.43;;;23.50;64.90;;;;;;5095847;28;20472;-72
2022/05/20 11:34:53;;;;;;;9.33;8.10;;;23.50;65.00;;;;;;5093094;28;20467;-73
2022/05/20 11:37:51;;;;;;;9.43;8.50;;;23.50;65.00;;;;;;5086707;28;20472;-72
2022/05/20 11:40:33;;;;;;;9.13;8.30;;;23.60;65.20;;;;;;5092883;28;20445;-73
2022/05/20 11:43:17;;;;;;;8.37;7.67;;;23.60;65.20;;;;;;5086917;28;20462;-72
2022/05/20 11:45:54;;;;;;;8.93;8.20;;;23.50;65.20;;;;;;5086657;28;20996;-72
2022/05/20 11:48:53;;;;;;;9.90;9.10;;;23.50;65.20;;;;;;5091234;28;20408;-72
2022/05/20 11:51:45;;;;;;;10.30;9.37;;;23.60;66.20;;;;;;5090296;28;20449;-72
2022/05/20 11:54:18;;;;;;;10.73;9.73;;;23.60;67.30;;;;;;5093081;28;20480;-73
2022/05/20 11:56:54;;;;;;;11.23;10.13;;;23.60;69.10;;;;;;5090098;28;20466;-72
2022/05/20 11:59:30;;;;;;;11.50;10.33;;;23.60;68.80;;;;;;5072739;28;20799;-72
2022/05/20 12:02:01;;;;;;;9.70;8.80;;;23.60;68.70;;;;;;5072434;28;20472;-73
2022/05/20 12:04:32;;;;;;;9.80;9.00;;;23.60;68.40;;;;;;5086534;28;20414;-72
2022/05/20 12:07:04;;;;;;;8.67;7.93;;;23.60;68.20;;;;;;5072516;28;20474;-72
2022/05/20 12:09:36;;;;;;;9.80;8.90;;;23.50;67.80;;;;;;5091089;28;20471;-72
2022/05/20 12:12:24;;;;;;;11.87;9.70;;;23.50;68.10;;;;;;5087510;28;20475;-72
2022/05/20 12:15:07;;;;;;;8.40;7.60;;;23.50;69.30;;;;;;5072601;28;20418;-72
2022/05/20 12:17:37;;;;;;;9.13;8.43;;;23.50;68.70;;;;;;5071891;28;20983;-71
2022/05/20 12:26:26;;;;;;;8.97;8.07;;;23.60;68.90;;;;;;5071480;28;20501;-72
2022/05/20 12:28:56;;;;;;;9.13;8.33;;;23.50;68.50;;;;;;5072002;28;20454;-74
2022/05/20 12:31:40;;;;;;;8.50;7.73;;;23.50;68.60;;;;;;5071575;28;20979;-73
2022/05/20 12:34:30;;;;;;;7.23;6.67;;;23.50;68.40;;;;;;5072050;28;20484;-73
2022/05/20 12:36:58;;;;;;;9.33;8.53;;;23.50;68.20;;;;;;5071564;28;20972;-73
2022/05/20 12:39:48;;;;;;;8.97;8.03;;;23.50;68.40;;;;;;5072431;28;20418;-73
2022/05/20 12:42:22;;;;;;;8.73;8.10;;;23.50;68.10;;;;;;5071487;28;20498;-72
2022/05/20 12:44:52;;;;;;;8.60;7.80;;;23.50;68.20;;;;;;5071924;28;20453;-73
2022/05/20 12:47:31;;;;;;;8.30;7.60;;;23.50;68.70;;;;;;5071456;28;20469;-73
2022/05/20 12:50:06;;;;;;;8.23;7.53;;;23.50;69.20;;;;;;5072077;28;20485;-73
2022/05/20 12:52:45;;;;;;;7.73;6.93;;;23.50;69.30;;;;;;5071514;28;20465;-74
2022/05/20 12:55:18;;;;;;;8.33;7.53;;;23.50;69.70;;;;;;5071637;28;20448;-73
2022/05/20 12:57:53;;;;;;;7.17;6.57;;;23.50;69.50;;;;;;5075299;28;20540;-73
2022/05/20 13:00:30;;;;;;;7.50;6.90;;;23.50;69.30;;;;;;5072085;28;20475;-72
2022/05/20 13:03:03;;;;;;;6.87;6.33;;;23.50;69.10;;;;;;5073258;28;20465;-73
2022/05/20 13:05:34;;;;;;;7.50;6.90;;;23.50;69.20;;;;;;5091352;28;20854;-73
2022/05/20 13:08:08;;;;;;;7.60;6.87;;;23.50;69.20;;;;;;5073442;28;20903;-73
2022/05/20 13:10:39;;;;;;;7.00;6.40;;;23.50;69.00;;;;;;5071424;28;20838;-71
2022/05/20 13:13:11;;;;;;;7.23;6.60;;;23.50;69.30;;;;;;5071579;28;20446;-73
2022/05/20 13:15:45;;;;;;;7.47;6.87;;;23.50;69.10;;;;;;5071036;28;20443;-72
2022/05/20 13:18:18;;;;;;;6.83;6.13;;;23.50;69.10;;;;;;5071584;28;20434;-72
2022/05/20 13:20:48;;;;;;;6.90;6.30;;;23.50;68.80;;;;;;5078643;28;20661;-73
2022/05/20 13:23:20;;;;;;;6.57;6.00;;;23.50;68.50;;;;;;5092067;28;20428;-73
2022/05/20 13:25:48;;;;;;;7.50;6.80;;;23.50;68.50;;;;;;5090961;28;20439;-74
2022/05/20 13:28:23;;;;;;;7.10;6.50;;;23.50;68.30;;;;;;5068711;28;20470;-74
2022/05/20 13:30:59;;;;;;;6.67;6.10;;;23.50;68.30;;;;;;5070947;28;20459;-74
2022/05/20 13:33:28;;;;;;;6.97;6.37;;;23.50;68.20;;;;;;5071758;28;20421;-73
2022/05/20 13:35:56;;;;;;;7.27;6.77;;;23.50;68.10;;;;;;5070788;28;20476;-73
2022/05/20 13:38:28;;;;;;;6.73;6.13;;;23.50;67.90;;;;;;5071357;28;20475;-72
2022/05/20 13:40:57;;;;;;;6.33;5.77;;;23.50;67.70;;;;;;5072841;28;20461;-73
2022/05/20 13:43:29;;;;;;;8.23;6.07;;;23.60;67.60;;;;;;5066260;28;20449;-73
2022/05/20 13:51:40;;;;;;;5.83;5.43;;;23.60;67.30;;;;;;5089733;28;20548;-73
2022/05/20 13:54:13;;;;;;;6.10;5.60;;;23.60;67.30;;;;;;5075309;28;20421;-73